Time;durP1;ratioP1;P1;durP2;ratioP2;P2;SDS_P1;SDS_P2;PMS_P1;PMS_P2;Temp;Humidity;BMP_temperature;BMP_pressure;BME280_temperature;BME280_humidity;BME280_pressure;Samples;Min_cycle;Max_cycle;Signal;HPM_P1;HPM_P2
2023/06/21 00:00:47;;;;;;;16.65;6.97;;;;;;;27.21;54.95;98637.84;5012063;28;20030;-46
2023/06/21 00:03:13;;;;;;;27.15;7.25;;;;;;;26.94;55.57;98628.06;5012011;28;20577;-46
2023/06/21 00:05:38;;;;;;;24.80;7.57;;;;;;;26.65;55.98;98631.25;4994583;28;20029;-46
2023/06/21 00:08:05;;;;;;;19.52;7.15;;;;;;;26.36;56.96;98629.78;5004446;28;20041;-46
2023/06/21 00:10:31;;;;;;;21.67;6.55;;;;;;;26.07;57.46;98622.88;5031622;28;20038;-46
2023/06/21 00:12:57;;;;;;;24.35;7.15;;;;;;;25.79;58.09;98622.13;5031576;28;20022;-46
2023/06/21 00:15:24;;;;;;;27.15;7.47;;;;;;;25.51;59.15;98624.06;4997661;28;20065;-46
2023/06/21 00:17:50;;;;;;;22.33;7.22;;;;;;;25.24;59.86;98628.38;5013847;28;20029;-46
2023/06/21 00:20:16;;;;;;;20.17;6.53;;;;;;;25.12;60.86;98636.09;5031867;28;20456;-46
2023/06/21 00:22:45;;;;;;;22.23;7.53;;;;;;;25.08;61.05;98637.78;5031519;28;20061;-46
2023/06/21 00:25:12;;;;;;;20.33;7.45;;;;;;;25.01;61.48;98648.13;5013809;28;20044;-46
2023/06/21 00:27:38;;;;;;;24.95;8.65;;;;;;;25.11;61.47;98648.75;5013763;28;20079;-46
2023/06/21 00:30:05;;;;;;;26.02;7.85;;;;;;;25.19;61.41;98647.22;5013849;28;20036;-46
2023/06/21 00:32:30;;;;;;;17.70;6.72;;;;;;;25.31;60.95;98644.09;5031431;28;20029;-46
2023/06/21 00:34:56;;;;;;;27.42;7.78;;;;;;;25.38;60.55;98646.41;5013747;28;20037;-46
2023/06/21 00:37:21;;;;;;;21.25;7.20;;;;;;;25.38;60.12;98639.13;5013728;28;20117;-46
2023/06/21 00:39:47;;;;;;;17.67;6.30;;;;;;;25.43;59.63;98636.31;5013656;28;20480;-46
2023/06/21 00:42:15;;;;;;;14.68;6.20;;;;;;;25.45;59.08;98636.81;5013657;28;20025;-46
2023/06/21 00:44:41;;;;;;;16.30;6.43;;;;;;;25.46;58.56;98637.63;5013726;28;20513;-46
2023/06/21 00:47:07;;;;;;;22.73;6.20;;;;;;;25.46;58.18;98627.66;5013711;28;20040;-46
2023/06/21 00:49:33;;;;;;;17.77;6.80;;;;;;;25.40;57.76;98622.72;5031413;28;20029;-46
2023/06/21 00:51:59;;;;;;;10.25;5.72;;;;;;;25.28;57.55;98624.00;5031317;28;20037;-46
2023/06/21 00:54:32;;;;;;;11.82;5.68;;;;;;;25.19;57.48;98627.63;5031290;28;20037;-45
2023/06/21 00:56:58;;;;;;;12.73;5.50;;;;;;;25.15;57.53;98618.59;5031264;28;20063;-46
2023/06/21 00:59:28;;;;;;;19.85;8.05;;;;;;;25.19;56.96;98612.31;5031333;28;20057;-46
2023/06/21 01:01:57;;;;;;;14.95;7.28;;;;;;;25.22;56.48;98611.75;5031286;28;20021;-46
2023/06/21 01:04:31;;;;;;;15.05;5.82;;;;;;;25.12;56.64;98614.63;5016933;28;20040;-46
2023/06/21 01:06:56;;;;;;;12.52;6.00;;;;;;;25.06;56.98;98613.13;5033630;28;20022;-46
2023/06/21 01:09:56;;;;;;;13.95;5.43;;;;;;;25.17;56.80;98605.66;4997562;28;20508;-46
2023/06/21 01:13:04;;;;;;;11.27;5.22;;;;;;;25.26;56.25;98610.06;5015074;28;20088;-46
2023/06/21 01:15:42;;;;;;;8.07;5.10;;;;;;;25.10;55.91;98619.50;5014532;28;20034;-45
2023/06/21 01:18:12;;;;;;;14.43;5.65;;;;;;;24.89;56.31;98608.31;4997308;28;20129;-46
2023/06/21 01:20:39;;;;;;;8.85;5.05;;;;;;;24.73;56.77;98613.19;4981485;28;20101;-46
2023/06/21 01:23:29;;;;;;;7.70;5.10;;;;;;;24.55;56.79;98622.88;5014858;28;20037;-46
2023/06/21 01:26:29;;;;;;;9.70;5.13;;;;;;;24.29;57.39;98617.09;4997407;28;20030;-46
2023/06/21 01:29:40;;;;;;;9.95;4.97;;;;;;;24.03;57.87;98611.31;5014817;28;20022;-45
2023/06/21 01:32:07;;;;;;;10.13;5.65;;;;;;;23.85;58.21;98602.97;5009880;28;20499;-46
2023/06/21 01:34:34;;;;;;;6.15;4.82;;;;;;;23.77;58.68;98605.50;4996908;28;20038;-46
2023/06/21 01:37:00;;;;;;;11.52;6.22;;;;;;;23.72;58.85;98609.84;5014591;28;20578;-46
2023/06/21 01:39:27;;;;;;;8.77;4.82;;;;;;;23.63;59.13;98600.03;5014500;28;20117;-46
2023/06/21 01:41:53;;;;;;;12.88;5.70;;;;;;;23.53;59.59;98595.63;5014792;28;20072;-46
2023/06/21 01:44:20;;;;;;;16.80;5.90;;;;;;;23.44;59.68;98594.66;5014486;28;20496;-45
2023/06/21 01:46:47;;;;;;;11.60;5.45;;;;;;;23.40;60.31;98596.31;4996698;28;20112;-45
2023/06/21 01:49:15;;;;;;;8.77;5.00;;;;;;;23.46;60.48;98595.16;5014242;28;20046;-45
2023/06/21 01:51:43;;;;;;;11.60;5.68;;;;;;;23.49;60.33;98591.91;4996710;28;20033;-46
2023/06/21 01:54:09;;;;;;;9.30;5.20;;;;;;;23.58;60.14;98592.06;4996549;28;20068;-45
2023/06/21 01:56:37;;;;;;;19.27;9.82;;;;;;;23.56;60.36;98600.38;5014093;28;20372;-45
2023/06/21 01:59:03;;;;;;;21.70;12.82;;;;;;;23.69;60.21;98605.03;4996568;28;20072;-45
2023/06/21 02:01:31;;;;;;;7.22;6.05;;;;;;;23.62;59.58;98607.28;5014079;28;20073;-46
2023/06/21 02:04:00;;;;;;;10.63;5.43;;;;;;;23.44;60.07;98603.50;5014115;28;20022;-46
2023/06/21 02:06:29;;;;;;;13.95;6.70;;;;;;;23.43;60.94;98612.59;5014020;28;20041;-46
2023/06/21 02:08:59;;;;;;;10.57;5.25;;;;;;;23.87;60.73;98602.69;5013862;28;20046;-46
2023/06/21 02:11:26;;;;;;;16.45;6.13;;;;;;;24.40;59.58;98599.72;5013832;28;20026;-46
2023/06/21 02:13:52;;;;;;;12.43;6.15;;;;;;;24.63;58.38;98594.56;5013221;28;20029;-46
2023/06/21 02:16:23;;;;;;;16.92;7.47;;;;;;;24.70;58.14;98595.75;4995917;28;20037;-46
2023/06/21 02:18:48;;;;;;;12.65;6.35;;;;;;;24.60;57.67;98598.63;5013829;28;20104;-46
2023/06/21 02:21:15;;;;;;;15.68;6.47;;;;;;;24.21;58.54;98604.34;5013941;28;20065;-46
2023/06/21 02:23:42;;;;;;;9.85;5.47;;;;;;;23.75;59.71;98610.34;5013901;28;20034;-46
2023/06/21 02:26:07;;;;;;;11.95;5.55;;;;;;;23.39;61.27;98610.78;5013645;28;20492;-45
2023/06/21 02:28:33;;;;;;;10.90;6.18;;;;;;;23.32;62.43;98619.97;5013586;28;20041;-46
2023/06/21 02:30:58;;;;;;;13.82;5.13;;;;;;;23.47;62.44;98621.66;4995935;28;20033;-46
2023/06/21 02:33:24;;;;;;;16.02;6.32;;;;;;;23.63;61.92;98614.22;4995822;28;20021;-45
2023/06/21 02:35:50;;;;;;;14.10;6.82;;;;;;;23.83;61.37;98618.56;5013448;28;20585;-46
2023/06/21 02:38:15;;;;;;;9.30;5.63;;;;;;;23.70;60.96;98612.00;5013490;28;20451;-46
2023/06/21 02:40:42;;;;;;;14.90;6.05;;;;;;;23.41;61.47;98619.34;5013357;28;20400;-46
2023/06/21 02:43:08;;;;;;;13.68;5.70;;;;;;;23.08;62.31;98613.78;5013266;28;20033;-46
2023/06/21 02:45:33;;;;;;;12.27;6.63;;;;;;;22.72;63.52;98620.28;4995642;28;20034;-45
2023/06/21 02:47:59;;;;;;;12.52;6.50;;;;;;;22.40;64.72;98628.84;4995546;28;20042;-46
2023/06/21 02:50:25;;;;;;;12.05;6.07;;;;;;;22.38;65.33;98627.53;4995800;28;20034;-45
2023/06/21 02:52:50;;;;;;;12.10;6.45;;;;;;;22.48;65.18;98625.56;4995471;28;20041;-45
2023/06/21 02:55:16;;;;;;;16.38;6.05;;;;;;;22.52;65.16;98642.66;4995374;28;20084;-46
2023/06/21 02:57:42;;;;;;;17.15;6.43;;;;;;;22.67;65.20;98648.97;5013120;28;20448;-45
2023/06/21 03:00:41;;;;;;;11.18;6.03;;;;;;;22.80;64.78;98651.00;5013035;28;20045;-46
2023/06/21 03:03:00;;;;;;;11.27;5.72;;;;;;;22.64;64.50;98636.94;5008910;28;20058;-45
2023/06/21 03:05:29;;;;;;;12.77;7.00;;;;;;;22.32;66.05;98646.28;5012876;28;20030;-46
2023/06/21 03:07:56;;;;;;;15.73;7.25;;;;;;;22.00;67.34;98661.97;5000771;28;20049;-46
2023/06/21 03:10:22;;;;;;;18.38;7.07;;;;;;;21.87;68.34;98679.38;5011512;28;20082;-45
2023/06/21 03:12:48;;;;;;;10.43;5.90;;;;;;;22.12;68.99;98684.59;5013003;28;20034;-45
2023/06/21 03:15:13;;;;;;;13.70;5.70;;;;;;;22.62;67.63;98697.97;5012706;28;20034;-46
2023/06/21 03:17:40;;;;;;;18.02;6.43;;;;;;;23.13;66.39;98686.03;5012775;28;20052;-45
2023/06/21 03:20:12;;;;;;;13.57;7.15;;;;;;;23.46;64.78;98704.97;5011559;28;20073;-46
2023/06/21 03:22:39;;;;;;;20.63;6.72;;;;;;;23.58;64.49;98720.66;5012655;28;20034;-46
2023/06/21 03:25:06;;;;;;;26.50;6.55;;;;;;;23.87;63.59;98731.34;5012415;28;20522;-46
2023/06/21 03:27:32;;;;;;;18.98;6.30;;;;;;;24.04;62.32;98728.97;5011284;28;20038;-46
2023/06/21 03:29:58;;;;;;;15.60;6.43;;;;;;;24.13;61.75;98726.47;5012521;28;20042;-46
2023/06/21 03:32:24;;;;;;;20.95;6.05;;;;;;;24.18;61.58;98741.69;5012451;28;20068;-46
2023/06/21 03:34:50;;;;;;;18.80;7.05;;;;;;;24.27;61.36;98753.38;5012581;28;20069;-46
2023/06/21 03:37:15;;;;;;;17.95;6.32;;;;;;;24.44;60.66;98753.66;5012444;28;20037;-46
2023/06/21 03:39:41;;;;;;;11.43;5.75;;;;;;;24.51;60.05;98761.41;5011125;28;20092;-46
2023/06/21 03:42:07;;;;;;;14.55;5.93;;;;;;;24.49;60.18;98763.53;5011101;28;20484;-46
2023/06/21 03:44:32;;;;;;;15.88;6.35;;;;;;;24.26;59.73;98768.66;5011055;28;20403;-46
2023/06/21 03:46:58;;;;;;;24.35;6.90;;;;;;;23.95;60.49;98776.28;5010994;28;20087;-46
2023/06/21 03:49:24;;;;;;;12.40;6.18;;;;;;;23.72;60.95;98781.34;5011003;28;20038;-46
2023/06/21 03:51:50;;;;;;;12.50;5.32;;;;;;;23.59;61.33;98794.59;5010985;28;20042;-46
2023/06/21 03:54:15;;;;;;;10.80;5.47;;;;;;;23.43;61.00;98816.16;5010843;28;20558;-46
2023/06/21 03:56:41;;;;;;;12.23;6.18;;;;;;;23.31;61.62;98826.47;5010923;28;20499;-45
2023/06/21 03:59:07;;;;;;;17.05;6.32;;;;;;;23.29;61.97;98832.09;5012408;28;20041;-45
2023/06/21 04:01:33;;;;;;;10.77;5.63;;;;;;;23.27;62.03;98836.94;5012107;28;20038;-45
2023/06/21 04:03:58;;;;;;;12.43;6.05;;;;;;;23.15;61.94;98833.81;5010826;28;20492;-45
2023/06/21 04:06:25;;;;;;;13.35;6.05;;;;;;;23.07;62.26;98839.75;5010734;28;20467;-45
2023/06/21 04:08:51;;;;;;;16.05;6.05;;;;;;;23.08;62.60;98839.50;5011946;28;20048;-45
2023/06/21 04:11:17;;;;;;;9.52;6.07;;;;;;;23.13;62.38;98852.03;4994349;28;20022;-45
2023/06/21 04:13:42;;;;;;;16.27;6.88;;;;;;;23.10;62.47;98836.50;5012229;28;20038;-45
2023/06/21 04:16:08;;;;;;;20.02;6.35;;;;;;;23.12;62.45;98834.38;5011989;28;20440;-45
2023/06/21 04:18:34;;;;;;;19.63;6.80;;;;;;;23.11;62.82;98830.88;4994296;28;20105;-45
2023/06/21 04:20:59;;;;;;;16.85;6.55;;;;;;;23.13;63.08;98830.63;5011890;28;20030;-45
2023/06/21 04:23:28;;;;;;;25.55;7.50;;;;;;;23.08;62.88;98830.63;4994216;28;20030;-46
2023/06/21 04:25:53;;;;;;;17.88;6.75;;;;;;;23.10;63.15;98865.97;5011889;28;20041;-45
2023/06/21 04:28:24;;;;;;;27.67;8.10;;;;;;;23.20;62.90;98883.84;5011834;28;20030;-46
2023/06/21 04:30:51;;;;;;;18.55;6.97;;;;;;;23.30;62.57;98886.44;4995390;28;20049;-45
2023/06/21 04:33:16;;;;;;;25.55;10.48;;;;;;;23.47;62.28;98878.81;4993996;28;20034;-45
2023/06/21 04:35:42;;;;;;;29.17;22.38;;;;;;;23.75;62.22;98878.34;5011754;28;20036;-46
2023/06/21 04:38:08;;;;;;;168.52;153.63;;;;;;;23.98;61.28;98868.75;5013343;28;20034;-46
2023/06/21 04:40:33;;;;;;;21.60;13.02;;;;;;;24.22;60.35;98858.81;4997964;28;20026;-45
2023/06/21 04:43:01;;;;;;;9.18;5.80;;;;;;;24.16;59.64;98835.81;4997936;28;20080;-45
2023/06/21 04:45:26;;;;;;;10.38;5.38;;;;;;;24.07;59.17;98800.03;5015462;28;20025;-46
2023/06/21 04:47:56;;;;;;;11.52;6.00;;;;;;;23.71;59.46;98782.41;4997890;28;20400;-46
2023/06/21 04:50:23;;;;;;;10.90;6.05;;;;;;;23.16;61.57;98771.16;5015461;28;20038;-46
2023/06/21 04:52:49;;;;;;;11.85;5.68;;;;;;;23.10;62.36;98758.88;4997702;28;20030;-46
2023/06/21 04:55:18;;;;;;;10.93;6.07;;;;;;;23.28;62.22;98757.38;4997736;28;20052;-46
2023/06/21 04:57:45;;;;;;;8.80;5.50;;;;;;;23.59;61.05;98747.19;4997660;28;20030;-46
2023/06/21 05:00:12;;;;;;;6.38;4.80;;;;;;;23.81;60.09;98738.66;5015282;28;20130;-46
2023/06/21 05:02:39;;;;;;;9.15;5.10;;;;;;;23.96;59.45;98742.22;5015131;28;20067;-46
2023/06/21 05:05:04;;;;;;;9.27;5.35;;;;;;;23.95;59.29;98744.13;5015197;28;20068;-46
2023/06/21 05:07:30;;;;;;;10.13;5.85;;;;;;;23.91;59.70;98748.47;5003080;28;20073;-46
2023/06/21 05:09:55;;;;;;;7.47;5.05;;;;;;;23.83;59.78;98746.41;5017119;28;20032;-46
2023/06/21 05:12:21;;;;;;;11.95;5.85;;;;;;;23.65;60.38;98742.56;5016887;28;20487;-46
2023/06/21 05:14:47;;;;;;;26.40;5.82;;;;;;;23.56;60.64;98749.63;5034831;28;20033;-46
2023/06/21 05:17:15;;;;;;;9.10;5.68;;;;;;;23.49;60.87;98742.72;5017082;28;20060;-46
2023/06/21 05:19:42;;;;;;;10.27;5.68;;;;;;;23.62;60.89;98735.88;5034742;28;20027;-46
2023/06/21 05:22:08;;;;;;;8.15;5.60;;;;;;;23.71;60.57;98742.22;5016868;28;20570;-46
2023/06/21 05:24:34;;;;;;;9.77;6.13;;;;;;;23.89;60.27;98745.28;5016844;28;20108;-46
2023/06/21 05:26:59;;;;;;;10.07;5.38;;;;;;;23.99;59.86;98745.16;5034602;28;20052;-46
2023/06/21 05:29:25;;;;;;;8.23;6.22;;;;;;;23.98;59.80;98756.16;5034796;28;20040;-45
2023/06/21 05:31:51;;;;;;;11.82;6.00;;;;;;;24.02;60.02;98749.91;5016687;28;20030;-46
2023/06/21 05:34:17;;;;;;;10.05;5.50;;;;;;;24.10;59.80;98741.22;5034360;28;20527;-46
2023/06/21 05:36:42;;;;;;;9.55;6.20;;;;;;;24.29;59.22;98735.91;5034426;28;20041;-46
2023/06/21 05:39:08;;;;;;;11.80;6.22;;;;;;;24.26;58.93;98739.16;5016583;28;20465;-46
2023/06/21 05:41:34;;;;;;;13.30;6.10;;;;;;;24.04;59.81;98745.06;5000322;28;20485;-46
2023/06/21 05:44:00;;;;;;;15.32;6.75;;;;;;;23.78;60.37;98744.56;5016801;28;20026;-46
2023/06/21 05:46:25;;;;;;;12.02;7.68;;;;;;;23.70;61.15;98750.53;5000168;28;20083;-46
2023/06/21 05:48:51;;;;;;;17.40;7.07;;;;;;;23.80;60.78;98749.66;5016335;28;20026;-46
2023/06/21 05:51:16;;;;;;;11.27;5.82;;;;;;;23.98;60.27;98753.47;5016282;28;20072;-46
2023/06/21 05:53:42;;;;;;;17.02;5.72;;;;;;;23.88;60.40;98741.78;4999944;28;20125;-46
2023/06/21 05:56:08;;;;;;;12.30;5.85;;;;;;;23.93;60.93;98743.63;5016156;28;20040;-46
2023/06/21 05:58:34;;;;;;;10.85;7.25;;;;;;;24.38;60.12;98744.09;5034268;28;20049;-46
2023/06/21 06:00:59;;;;;;;13.05;6.63;;;;;;;24.60;59.25;98754.28;5033928;28;20539;-46
2023/06/21 06:03:25;;;;;;;11.20;6.43;;;;;;;24.55;59.16;98748.16;5016123;28;20022;-46
2023/06/21 06:05:53;;;;;;;14.57;7.00;;;;;;;24.48;59.44;98741.25;5033859;28;20442;-46
2023/06/21 06:08:18;;;;;;;16.58;6.20;;;;;;;24.44;59.79;98737.56;5015837;28;20547;-46
2023/06/21 06:10:44;;;;;;;17.88;6.93;;;;;;;24.58;59.75;98745.72;5033739;28;20120;-46
2023/06/21 06:13:10;;;;;;;13.77;6.40;;;;;;;24.89;58.92;98739.88;5015894;28;20492;-46
2023/06/21 06:15:35;;;;;;;11.82;6.28;;;;;;;25.13;58.54;98737.03;5033662;28;20159;-46
2023/06/21 06:18:01;;;;;;;20.23;6.82;;;;;;;25.36;57.14;98743.41;4999558;28;20029;-46
2023/06/21 06:20:28;;;;;;;10.32;5.43;;;;;;;25.34;56.55;98737.53;5015750;28;20044;-46
2023/06/21 06:22:54;;;;;;;13.07;6.97;;;;;;;25.20;57.24;98726.72;5033499;28;20025;-46
2023/06/21 06:25:19;;;;;;;13.43;6.25;;;;;;;25.17;57.50;98732.69;5033487;28;20377;-46
2023/06/21 06:27:45;;;;;;;10.20;6.00;;;;;;;25.56;56.65;98728.00;5033675;28;20083;-46
2023/06/21 06:30:12;;;;;;;10.18;5.88;;;;;;;25.81;55.84;98722.09;5033274;28;20514;-46
2023/06/21 06:32:37;;;;;;;14.23;5.88;;;;;;;26.06;54.76;98728.09;5015726;28;20037;-46
2023/06/21 06:35:04;;;;;;;14.88;6.72;;;;;;;25.86;55.06;98729.28;5015473;28;20029;-46
2023/06/21 06:37:30;;;;;;;13.45;6.68;;;;;;;25.40;56.29;98732.88;5015466;28;20040;-46
2023/06/21 06:39:55;;;;;;;13.27;6.68;;;;;;;25.03;58.06;98731.84;5033189;28;20037;-46
2023/06/21 06:42:21;;;;;;;16.92;6.95;;;;;;;24.92;58.86;98732.03;5015424;28;20068;-46
2023/06/21 06:44:47;;;;;;;16.15;6.72;;;;;;;24.97;58.63;98736.53;5033112;28;20025;-46
2023/06/21 06:47:13;;;;;;;16.73;7.07;;;;;;;25.16;58.19;98738.38;5015179;28;20034;-46
2023/06/21 06:49:39;;;;;;;13.68;6.30;;;;;;;25.41;57.82;98737.13;5015287;28;20080;-46
2023/06/21 06:52:05;;;;;;;14.20;7.15;;;;;;;26.19;55.83;98734.56;5015123;28;20037;-46
2023/06/21 06:54:31;;;;;;;13.68;5.43;;;;;;;26.82;54.26;98738.25;5015174;28;20022;-46
2023/06/21 06:56:57;;;;;;;13.82;6.03;;;;;;;27.08;52.57;98736.53;5015103;28;20037;-47
2023/06/21 06:59:23;;;;;;;11.13;5.75;;;;;;;27.16;52.50;98739.56;5033022;28;20033;-46
2023/06/21 07:01:50;;;;;;;9.10;5.70;;;;;;;27.42;51.71;98734.34;5014538;28;20041;-46
2023/06/21 07:04:15;;;;;;;9.60;5.47;;;;;;;27.89;50.67;98735.50;5032740;28;20463;-46
2023/06/21 07:06:41;;;;;;;15.40;6.35;;;;;;;27.96;50.42;98742.34;4998702;28;20033;-46
2023/06/21 07:09:08;;;;;;;12.98;6.65;;;;;;;27.86;51.19;98748.78;5014712;28;20049;-46
2023/06/21 07:11:34;;;;;;;18.70;7.28;;;;;;;28.13;50.80;98749.66;5014877;28;20025;-46
2023/06/21 07:14:00;;;;;;;12.10;6.28;;;;;;;28.61;49.71;98751.47;5014723;28;20030;-46
2023/06/21 07:16:29;;;;;;;16.40;6.97;;;;;;;28.62;49.52;98759.25;5032523;28;20029;-46
2023/06/21 07:18:55;;;;;;;16.42;6.03;;;;;;;28.63;49.53;98755.47;5032400;28;20033;-46
2023/06/21 07:21:21;;;;;;;15.98;6.18;;;;;;;29.09;48.46;98755.88;5014759;28;20392;-46
2023/06/21 07:23:48;;;;;;;16.10;5.95;;;;;;;29.51;47.90;98750.69;5032389;28;20480;-46
2023/06/21 07:26:14;;;;;;;24.35;6.55;;;;;;;30.46;46.01;98751.28;5032314;28;20048;-44
2023/06/21 07:28:40;;;;;;;17.15;6.45;;;;;;;31.17;44.28;98736.78;5014574;28;20573;-47
2023/06/21 07:31:06;;;;;;;13.85;6.22;;;;;;;31.32;43.07;98738.03;5032256;28;20025;-46
2023/06/21 07:33:32;;;;;;;15.80;6.65;;;;;;;31.04;43.08;98740.59;5014395;28;20036;-46
2023/06/21 07:35:57;;;;;;;15.57;7.10;;;;;;;30.61;44.09;98744.50;4998211;28;20022;-46
2023/06/21 07:38:23;;;;;;;24.17;7.22;;;;;;;30.34;44.98;98743.88;5032160;28;20029;-46
2023/06/21 07:40:48;;;;;;;16.55;6.85;;;;;;;31.06;44.29;98741.03;4998036;28;20041;-47
2023/06/21 07:43:14;;;;;;;12.35;6.63;;;;;;;32.29;42.05;98724.00;5014326;28;20084;-47
2023/06/21 07:45:41;;;;;;;16.25;6.03;;;;;;;32.32;40.84;98723.34;5032046;28;20021;-46
2023/06/21 07:48:08;;;;;;;19.08;6.43;;;;;;;31.54;42.06;98726.00;5032002;28;20628;-46
2023/06/21 07:50:33;;;;;;;17.67;6.55;;;;;;;30.66;43.31;98717.97;5032036;28;20454;-46
2023/06/21 07:52:59;;;;;;;16.95;5.95;;;;;;;29.94;44.94;98711.84;5031849;28;20032;-46
2023/06/21 07:55:25;;;;;;;21.42;6.45;;;;;;;29.43;46.26;98713.66;5014123;28;20034;-46
2023/06/21 07:57:50;;;;;;;22.75;6.28;;;;;;;29.17;46.82;98701.03;5014119;28;20037;-46
2023/06/21 08:00:16;;;;;;;71.50;10.85;;;;;;;29.35;47.32;98707.16;5031852;28;20108;-46
2023/06/21 08:02:49;;;;;;;36.63;7.35;;;;;;;29.62;47.08;98705.94;5031866;28;20041;-46
2023/06/21 08:05:15;;;;;;;23.92;6.88;;;;;;;29.75;46.83;98712.25;5031999;28;20436;-46
2023/06/21 08:07:41;;;;;;;18.10;6.63;;;;;;;29.87;46.90;98720.44;5010494;28;20058;-46
2023/06/21 08:10:08;;;;;;;29.83;7.15;;;;;;;29.88;47.01;98715.81;5012046;28;20036;-47
2023/06/21 08:12:34;;;;;;;18.73;6.35;;;;;;;30.05;46.58;98720.34;5011036;28;20118;-46
2023/06/21 08:14:59;;;;;;;23.40;7.80;;;;;;;30.41;45.01;98716.28;5010928;28;20113;-47
2023/06/21 08:17:25;;;;;;;30.35;6.72;;;;;;;30.77;44.32;98714.88;5011972;28;20100;-47
2023/06/21 08:19:51;;;;;;;27.00;6.93;;;;;;;31.02;43.22;98718.44;5010614;28;20026;-46
2023/06/21 08:22:17;;;;;;;36.45;8.68;;;;;;;31.47;43.67;98714.91;5011932;28;20038;-46
2023/06/21 08:24:43;;;;;;;14.98;7.25;;;;;;;32.30;42.55;98722.88;5011892;28;20073;-47
2023/06/21 08:27:09;;;;;;;24.95;7.88;;;;;;;32.57;41.86;98724.06;5010590;28;20032;-46
2023/06/21 08:29:34;;;;;;;15.93;7.93;;;;;;;32.50;41.70;98718.38;5011811;28;20415;-46
2023/06/21 08:32:00;;;;;;;20.25;6.75;;;;;;;32.35;42.13;98707.13;5011836;28;20026;-47
2023/06/21 08:34:26;;;;;;;23.67;7.93;;;;;;;32.53;42.37;98709.56;5010452;28;20112;-46
2023/06/21 08:36:51;;;;;;;51.38;8.90;;;;;;;32.76;42.23;98701.66;5010485;28;20065;-47
2023/06/21 08:39:17;;;;;;;22.55;6.65;;;;;;;32.64;40.05;98703.31;5011819;28;20029;-47
2023/06/21 08:41:43;;;;;;;16.17;6.30;;;;;;;32.13;40.27;98696.78;5010440;28;20049;-46
2023/06/21 08:44:09;;;;;;;24.27;8.15;;;;;;;31.58;40.96;98707.13;5010431;28;20018;-46
2023/06/21 08:46:38;;;;;;;31.63;7.18;;;;;;;31.40;42.30;98706.53;5011734;28;20034;-47
2023/06/21 08:49:05;;;;;;;22.38;8.05;;;;;;;31.18;43.27;98722.09;5011953;28;20107;-46
2023/06/21 08:51:35;;;;;;;14.45;7.32;;;;;;;30.79;44.25;98718.81;5011886;28;20388;-46
2023/06/21 08:54:06;;;;;;;19.45;7.03;;;;;;;30.30;45.14;98709.66;5010356;28;20034;-46
2023/06/21 08:56:54;;;;;;;26.52;8.55;;;;;;;30.09;46.52;98704.25;5011752;28;20064;-46
2023/06/21 08:59:41;;;;;;;21.40;7.07;;;;;;;30.05;46.71;98707.59;5009941;28;20109;-47
2023/06/21 09:02:15;;;;;;;21.45;8.63;;;;;;;29.67;47.51;98704.94;5011570;28;20034;-46
2023/06/21 09:04:45;;;;;;;26.52;8.70;;;;;;;29.32;48.88;98693.50;5011692;28;20334;-46
2023/06/21 09:07:12;;;;;;;21.05;8.13;;;;;;;28.99;49.20;98694.06;5010050;28;20058;-46
2023/06/21 09:09:40;;;;;;;38.83;14.55;;;;;;;28.82;50.44;98693.00;4977742;28;20499;-46
2023/06/21 09:12:08;;;;;;;20.70;6.93;;;;;;;28.96;50.49;98681.22;5011459;28;20113;-46
2023/06/21 09:14:34;;;;;;;27.58;8.98;;;;;;;29.43;49.57;98676.59;4993780;28;20029;-46
2023/06/21 09:17:01;;;;;;;25.48;8.43;;;;;;;30.37;47.96;98637.63;4993880;28;20045;-46
2023/06/21 09:19:27;;;;;;;29.23;7.15;;;;;;;31.11;45.41;98618.03;4993822;28;20037;-46
2023/06/21 09:21:57;;;;;;;57.17;10.57;;;;;;;31.28;45.00;98628.66;5011371;28;20033;-46
2023/06/21 09:24:23;;;;;;;25.67;8.32;;;;;;;31.00;43.63;98626.63;4995719;28;20156;-46
2023/06/21 09:26:49;;;;;;;116.10;89.40;;;;;;;30.32;44.51;98642.47;5014727;28;20109;-46
2023/06/21 09:29:15;;;;;;;24.33;8.07;;;;;;;29.72;45.51;98656.09;4997165;28;20061;-46
2023/06/21 09:31:41;;;;;;;55.28;17.50;;;;;;;29.24;48.19;98649.97;5014742;28;20034;-46
2023/06/21 09:34:07;;;;;;;50.78;19.75;;;;;;;29.30;48.84;98644.38;4996970;28;20037;-46
2023/06/21 09:36:32;;;;;;;37.30;12.13;;;;;;;29.29;48.66;98670.59;4996944;28;20037;-46
2023/06/21 09:39:08;;;;;;;31.98;8.35;;;;;;;29.37;48.21;98669.00;5014639;28;20030;-46
2023/06/21 09:41:35;;;;;;;21.38;7.68;;;;;;;29.57;47.75;98681.75;4996883;28;20503;-46
2023/06/21 09:44:01;;;;;;;37.72;9.38;;;;;;;29.33;48.18;98685.06;5014501;28;20148;-46
2023/06/21 09:46:27;;;;;;;19.52;7.05;;;;;;;29.39;47.87;98686.47;4996827;28;20034;-47
2023/06/21 09:48:53;;;;;;;17.27;6.55;;;;;;;29.26;47.69;98704.50;4996806;28;20030;-46
2023/06/21 09:51:23;;;;;;;25.35;7.72;;;;;;;28.88;49.93;98723.34;4996738;28;20463;-46
2023/06/21 09:53:52;;;;;;;28.20;8.23;;;;;;;28.27;51.70;98732.22;4996674;28;20026;-46
2023/06/21 09:56:19;;;;;;;35.70;9.35;;;;;;;27.84;54.76;98753.69;4996598;28;20034;-46
2023/06/21 09:58:47;;;;;;;47.10;9.23;;;;;;;27.58;56.48;98754.38;4996883;28;20080;-46
2023/06/21 10:01:16;;;;;;;41.28;10.60;;;;;;;27.53;58.80;98713.28;5014412;28;20029;-46
2023/06/21 10:03:46;;;;;;;48.42;11.85;;;;;;;27.35;60.06;98720.53;4996479;28;20396;-46
2023/06/21 10:06:16;;;;;;;36.33;9.18;;;;;;;27.07;61.34;98809.56;4996475;28;20467;-46
2023/06/21 10:08:43;;;;;;;26.42;7.72;;;;;;;26.37;61.88;98819.72;5013785;28;20049;-46
2023/06/21 10:11:09;;;;;;;39.47;9.65;;;;;;;26.15;64.00;98784.69;4996404;28;20041;-46
2023/06/21 10:13:38;;;;;;;32.85;9.23;;;;;;;26.37;64.41;98798.19;5013877;28;20026;-46
2023/06/21 10:16:04;;;;;;;19.70;7.78;;;;;;;26.57;63.36;98796.16;4996290;28;20041;-46
2023/06/21 10:18:34;;;;;;;41.65;9.82;;;;;;;26.76;63.67;98806.78;5014056;28;20459;-46
2023/06/21 10:21:03;;;;;;;23.45;8.23;;;;;;;26.93;63.53;98825.78;5013846;28;20036;-46
2023/06/21 10:23:32;;;;;;;26.15;8.25;;;;;;;26.89;64.38;98827.50;4996453;28;20128;-45
2023/06/21 10:26:04;;;;;;;23.65;7.75;;;;;;;26.85;65.19;98824.63;5013706;28;20033;-46
2023/06/21 10:28:35;;;;;;;30.27;9.93;;;;;;;26.79;66.51;98792.72;5013704;28;20034;-46
2023/06/21 10:31:07;;;;;;;43.60;12.18;;;;;;;26.80;70.30;98757.44;4996049;28;20495;-46
2023/06/21 10:33:35;;;;;;;39.90;15.68;;;;;;;26.85;72.78;98743.81;5013649;28;20510;-46
2023/06/21 10:36:02;;;;;;;32.88;15.23;;;;;;;26.61;71.94;98762.97;4995142;28;20037;-46
2023/06/21 10:38:37;;;;;;;33.60;14.52;;;;;;;25.83;72.23;98756.75;4995831;28;20026;-46
2023/06/21 10:41:05;;;;;;;75.07;64.82;;;;;;;25.11;75.38;98733.84;4995821;28;20045;-46
2023/06/21 10:43:31;;;;;;;28.75;11.80;;;;;;;24.84;78.05;98743.44;4995817;28;20022;-45
2023/06/21 10:45:58;;;;;;;21.88;9.63;;;;;;;24.73;77.88;98760.81;4996025;28;20037;-46
2023/06/21 10:48:26;;;;;;;25.17;10.88;;;;;;;24.71;79.20;98753.03;4995682;28;20033;-46
2023/06/21 10:50:52;;;;;;;33.78;10.45;;;;;;;24.77;80.37;98723.41;5013251;28;20040;-46
2023/06/21 10:53:18;;;;;;;25.02;9.88;;;;;;;24.96;79.34;98720.72;5013193;28;20022;-46
2023/06/21 10:55:46;;;;;;;24.73;10.15;;;;;;;25.53;80.04;98724.00;4995547;28;20037;-46
2023/06/21 10:58:15;;;;;;;23.02;10.35;;;;;;;25.92;77.29;98733.50;5013060;28;20044;-46
2023/06/21 11:00:44;;;;;;;17.30;8.80;;;;;;;26.31;75.67;98714.09;5013058;28;20073;-46
2023/06/21 11:03:13;;;;;;;16.80;8.05;;;;;;;26.92;70.72;98680.66;5013080;28;20026;-46
2023/06/21 11:05:40;;;;;;;18.20;8.02;;;;;;;27.46;68.36;98666.00;5012895;28;20495;-46
2023/06/21 11:08:06;;;;;;;21.88;8.20;;;;;;;27.82;64.74;98667.69;5005253;28;20129;-46
2023/06/21 11:10:49;;;;;;;16.50;7.60;;;;;;;28.10;62.13;98670.13;5014864;28;20116;-46
2023/06/21 11:13:36;;;;;;;26.58;7.82;;;;;;;28.39;61.62;98680.31;5014837;28;20029;-46
2023/06/21 11:16:17;;;;;;;30.80;8.88;;;;;;;28.92;63.96;98682.97;5014790;28;20033;-46
2023/06/21 11:18:50;;;;;;;21.63;7.85;;;;;;;29.77;60.71;98693.78;5032493;28;20476;-46
2023/06/21 11:21:44;;;;;;;19.30;7.90;;;;;;;30.43;56.35;98695.88;5014654;28;20041;-46
2023/06/21 11:24:13;;;;;;;21.30;7.85;;;;;;;30.42;53.59;98699.69;5032321;28;20025;-46
2023/06/21 11:26:58;;;;;;;22.05;8.60;;;;;;;30.62;53.86;98686.47;4998340;28;20048;-46